Time;durP1;ratioP1;P1;durP2;ratioP2;P2;SDS_P1;SDS_P2;PMS_P1;PMS_P2;Temp;Humidity;BMP_temperature;BMP_pressure;BME280_temperature;BME280_humidity;BME280_pressure;Samples;Min_cycle;Max_cycle;Signal;HPM_P1;HPM_P2
2021/11/18 00:00:59;;;;;;;14.98;13.55;;;6.30;99.90;;;;;;2668576;28;20198;-67
2021/11/18 00:02:18;;;;;;;15.60;14.20;;;6.30;99.90;;;;;;2660320;28;20213;-67
2021/11/18 00:03:36;;;;;;;14.70;13.20;;;6.40;99.90;;;;;;2662283;28;20747;-67
2021/11/18 00:04:55;;;;;;;14.98;13.48;;;6.40;99.90;;;;;;2664205;28;20208;-67
2021/11/18 00:06:15;;;;;;;15.30;13.82;;;6.40;99.90;;;;;;2669461;28;20594;-67
2021/11/18 00:07:34;;;;;;;16.48;14.88;;;6.40;99.90;;;;;;2659308;28;20206;-67
2021/11/18 00:08:53;;;;;;;15.95;14.13;;;6.40;99.90;;;;;;2659346;28;20664;-67
2021/11/18 00:10:14;;;;;;;14.77;13.15;;;6.40;99.90;;;;;;2658135;28;20630;-68
2021/11/18 00:11:32;;;;;;;14.90;13.40;;;6.40;99.90;;;;;;2658876;28;20274;-68
2021/11/18 00:12:51;;;;;;;15.60;14.00;;;6.40;99.90;;;;;;2664225;28;20619;-67
2021/11/18 00:14:10;;;;;;;15.15;13.65;;;6.40;99.90;;;;;;2664393;28;20268;-68
2021/11/18 00:15:31;;;;;;;14.88;13.43;;;6.30;99.90;;;;;;2658380;28;20688;-67
2021/11/18 00:16:50;;;;;;;17.13;15.13;;;6.20;99.90;;;;;;2658677;28;20213;-67
2021/11/18 00:18:10;;;;;;;15.40;13.90;;;6.20;99.90;;;;;;2666977;28;20210;-67
2021/11/18 00:19:29;;;;;;;16.50;14.82;;;6.10;99.90;;;;;;2662374;28;20203;-68
2021/11/18 00:20:50;;;;;;;16.60;14.75;;;6.10;99.90;;;;;;2662524;28;20203;-68
2021/11/18 00:22:09;;;;;;;16.63;15.02;;;6.00;99.90;;;;;;2669389;28;20245;-67
2021/11/18 00:23:31;;;;;;;16.85;15.18;;;6.10;99.90;;;;;;2661200;28;20199;-67
2021/11/18 00:24:50;;;;;;;17.65;15.93;;;6.10;99.90;;;;;;2669380;28;20251;-67
2021/11/18 00:26:10;;;;;;;16.83;14.93;;;6.10;99.90;;;;;;2668895;28;20202;-67
2021/11/18 00:27:27;;;;;;;18.50;16.17;;;6.10;99.90;;;;;;2669054;28;20304;-68
2021/11/18 00:28:47;;;;;;;16.77;15.07;;;6.00;99.90;;;;;;2665501;28;20319;-67
2021/11/18 00:30:07;;;;;;;17.25;15.48;;;6.10;99.90;;;;;;2664640;28;20203;-67
2021/11/18 00:31:35;;;;;;;17.75;15.95;;;6.20;99.90;;;;;;2668924;28;20206;-67
2021/11/18 00:32:53;;;;;;;17.30;14.65;;;6.20;99.90;;;;;;2669636;28;20691;-67
2021/11/18 00:34:13;;;;;;;15.98;14.38;;;6.20;99.90;;;;;;2668370;28;20206;-67
2021/11/18 00:35:32;;;;;;;17.33;15.63;;;6.20;99.90;;;;;;2669500;28;20280;-67
2021/11/18 00:36:51;;;;;;;17.85;16.05;;;6.30;99.90;;;;;;2669704;28;20229;-67
2021/11/18 00:38:08;;;;;;;15.57;14.00;;;6.30;99.90;;;;;;2669546;28;20651;-67
2021/11/18 00:39:27;;;;;;;20.00;15.00;;;6.30;99.90;;;;;;2668914;28;20321;-68
2021/11/18 00:40:48;;;;;;;17.73;15.98;;;6.30;99.90;;;;;;2661479;28;20206;-67
2021/11/18 00:42:06;;;;;;;16.80;15.10;;;6.30;99.90;;;;;;2662646;28;20613;-67
2021/11/18 00:43:24;;;;;;;18.50;16.60;;;6.20;99.90;;;;;;2659855;28;20222;-67
2021/11/18 00:44:43;;;;;;;18.38;16.50;;;6.10;99.90;;;;;;2669606;28;20211;-67
2021/11/18 00:46:02;;;;;;;18.95;17.05;;;6.10;99.90;;;;;;2669377;28;20210;-67
2021/11/18 00:47:21;;;;;;;19.48;16.98;;;6.20;99.90;;;;;;2669191;28;20263;-67
2021/11/18 00:48:39;;;;;;;19.35;17.35;;;6.10;99.90;;;;;;2669080;28;20218;-67
2021/11/18 00:49:58;;;;;;;18.67;16.30;;;6.00;99.90;;;;;;2668646;28;20223;-67
2021/11/18 00:51:19;;;;;;;16.05;14.50;;;6.10;99.90;;;;;;2667485;28;20938;-67
2021/11/18 00:52:37;;;;;;;17.33;15.52;;;6.20;99.90;;;;;;2661569;28;20272;-67
2021/11/18 00:54:00;;;;;;;20.27;18.10;;;6.20;99.90;;;;;;2668935;28;20273;-67
2021/11/18 00:55:20;;;;;;;17.48;15.35;;;6.20;99.90;;;;;;2668399;28;20206;-67
2021/11/18 00:56:39;;;;;;;18.40;16.45;;;6.20;99.90;;;;;;2669476;28;20268;-67
2021/11/18 00:57:57;;;;;;;18.48;16.30;;;6.20;99.90;;;;;;2669092;28;20211;-67
2021/11/18 00:59:15;;;;;;;18.10;15.80;;;6.10;99.90;;;;;;2668719;28;20209;-67
2021/11/18 01:00:37;;;;;;;16.42;14.63;;;6.10;99.90;;;;;;2665349;28;20655;-67
2021/11/18 01:01:56;;;;;;;17.92;16.02;;;6.10;99.90;;;;;;2664979;28;20284;-67
2021/11/18 01:03:17;;;;;;;16.13;14.60;;;6.20;99.90;;;;;;2664257;28;20206;-67
2021/11/18 01:04:36;;;;;;;18.33;15.55;;;6.20;99.90;;;;;;2660848;28;20215;-67
2021/11/18 01:05:57;;;;;;;19.60;17.55;;;6.10;99.90;;;;;;2668888;28;20552;-67
2021/11/18 01:07:14;;;;;;;18.27;16.38;;;6.10;99.90;;;;;;2666392;28;20194;-68
2021/11/18 01:08:33;;;;;;;17.67;15.87;;;6.10;99.90;;;;;;2668890;28;20289;-67
2021/11/18 01:09:50;;;;;;;17.95;15.75;;;6.00;99.90;;;;;;2668438;28;20210;-67
2021/11/18 01:11:21;;;;;;;17.92;16.10;;;6.10;99.90;;;;;;2668575;28;20211;-67
2021/11/18 01:12:46;;;;;;;20.83;16.65;;;6.10;99.90;;;;;;2669394;28;20208;-67
2021/11/18 01:14:08;;;;;;;17.55;15.82;;;6.00;99.90;;;;;;2658687;28;20211;-67
2021/11/18 01:15:29;;;;;;;18.83;16.98;;;6.00;99.90;;;;;;2658135;28;20207;-67
2021/11/18 01:16:50;;;;;;;17.77;15.82;;;6.00;99.90;;;;;;2657788;28;20219;-67
2021/11/18 01:18:09;;;;;;;18.38;16.48;;;6.00;99.90;;;;;;2657839;28;20215;-67
2021/11/18 01:19:27;;;;;;;18.15;16.25;;;6.00;99.90;;;;;;2658345;28;20653;-67
2021/11/18 01:20:47;;;;;;;22.38;17.92;;;5.90;99.90;;;;;;2657371;28;20217;-67
2021/11/18 01:22:07;;;;;;;19.48;16.80;;;5.90;99.90;;;;;;2658616;28;20265;-67
2021/11/18 01:23:31;;;;;;;19.13;17.23;;;5.90;99.90;;;;;;2658243;28;20655;-67
2021/11/18 01:24:49;;;;;;;21.73;17.98;;;6.00;99.90;;;;;;2661439;28;20211;-67
2021/11/18 01:26:11;;;;;;;19.35;17.13;;;5.90;99.90;;;;;;2666575;28;20206;-67
2021/11/18 01:27:29;;;;;;;20.40;18.02;;;6.00;99.90;;;;;;2668650;28;20205;-67
2021/11/18 01:28:49;;;;;;;20.60;17.70;;;6.00;99.90;;;;;;2664370;28;20206;-67
2021/11/18 01:30:14;;;;;;;20.13;18.23;;;6.00;99.90;;;;;;2656850;28;21005;-67
2021/11/18 01:31:33;;;;;;;20.58;16.75;;;6.00;99.90;;;;;;2657927;28;20731;-67
2021/11/18 01:32:54;;;;;;;23.67;19.77;;;6.00;99.90;;;;;;2658298;28;20257;-67
2021/11/18 01:34:13;;;;;;;22.65;18.33;;;6.00;99.90;;;;;;2658455;28;20215;-67
2021/11/18 01:35:32;;;;;;;20.95;18.80;;;5.90;99.90;;;;;;2658796;28;20203;-67
2021/11/18 01:36:51;;;;;;;21.35;18.48;;;6.00;99.90;;;;;;2657823;28;20211;-67
2021/11/18 01:38:09;;;;;;;25.40;20.00;;;5.90;99.90;;;;;;2658003;28;20330;-67
2021/11/18 01:39:27;;;;;;;22.33;20.00;;;6.00;99.90;;;;;;2658226;28;20254;-67
2021/11/18 01:40:49;;;;;;;23.70;18.88;;;6.00;99.90;;;;;;2659566;28;20697;-67
2021/11/18 01:42:08;;;;;;;21.63;19.33;;;6.00;99.90;;;;;;2665174;28;20395;-67
2021/11/18 01:43:30;;;;;;;24.40;18.95;;;6.10;99.90;;;;;;2656432;28;20195;-67
2021/11/18 01:44:50;;;;;;;25.45;19.80;;;6.00;99.90;;;;;;2663166;28;20279;-67
2021/11/18 01:46:14;;;;;;;22.27;19.83;;;6.10;99.90;;;;;;2668861;28;20202;-68
2021/11/18 01:47:33;;;;;;;22.20;19.85;;;6.10;99.90;;;;;;2667883;28;20269;-68
2021/11/18 01:48:53;;;;;;;24.88;19.17;;;6.10;99.90;;;;;;2669031;28;20645;-67
2021/11/18 01:50:15;;;;;;;22.52;19.63;;;6.10;99.90;;;;;;2667548;28;20206;-67
2021/11/18 01:51:41;;;;;;;23.13;20.60;;;6.10;99.90;;;;;;2665730;28;20587;-67
2021/11/18 01:53:01;;;;;;;23.77;20.00;;;6.10;99.90;;;;;;2663099;28;20218;-67
2021/11/18 01:54:22;;;;;;;23.58;19.35;;;6.00;99.90;;;;;;2660097;28;20195;-67
2021/11/18 01:55:42;;;;;;;19.75;17.40;;;6.10;99.90;;;;;;2668558;28;20215;-67
2021/11/18 01:57:03;;;;;;;24.55;20.33;;;6.00;99.90;;;;;;2668716;28;20580;-67
2021/11/18 01:58:22;;;;;;;26.10;21.25;;;6.00;99.90;;;;;;2668548;28;20214;-68
2021/11/18 01:59:44;;;;;;;24.25;20.88;;;6.00;99.90;;;;;;2667707;28;20214;-67
2021/11/18 02:01:04;;;;;;;23.02;20.50;;;6.00;99.90;;;;;;2667878;28;20234;-67
2021/11/18 02:02:27;;;;;;;22.05;19.45;;;6.00;99.90;;;;;;2668345;28;20241;-67
2021/11/18 02:03:46;;;;;;;23.92;20.90;;;6.10;99.90;;;;;;2653224;28;20208;-68
2021/11/18 02:05:28;;;;;;;23.70;20.85;;;6.00;99.90;;;;;;2658459;28;20279;-68
2021/11/18 02:07:09;;;;;;;23.25;20.73;;;6.00;99.90;;;;;;2661199;28;20204;-67
2021/11/18 02:08:29;;;;;;;23.77;21.13;;;6.10;99.90;;;;;;2660709;28;20649;-67
2021/11/18 02:09:48;;;;;;;24.35;19.83;;;6.10;99.90;;;;;;2657781;28;20270;-68
2021/11/18 02:11:25;;;;;;;23.00;20.25;;;6.00;99.90;;;;;;2657669;28;20445;-68
2021/11/18 02:12:43;;;;;;;24.48;21.38;;;6.00;99.90;;;;;;2658479;28;20245;-67
2021/11/18 02:14:04;;;;;;;23.73;20.25;;;6.00;99.90;;;;;;2658524;28;20214;-68
2021/11/18 02:15:36;;;;;;;21.80;19.42;;;6.00;99.90;;;;;;2657990;28;20620;-68
2021/11/18 02:17:00;;;;;;;23.42;20.75;;;6.00;99.90;;;;;;2664345;28;20275;-68
2021/11/18 02:18:37;;;;;;;23.38;20.13;;;6.10;99.90;;;;;;2667733;28;20665;-68
2021/11/18 02:20:04;;;;;;;24.15;19.55;;;6.10;99.90;;;;;;2667884;28;20212;-68
2021/11/18 02:21:23;;;;;;;27.38;20.90;;;6.10;99.90;;;;;;2668555;28;20276;-68
2021/11/18 02:22:41;;;;;;;22.25;19.92;;;6.20;99.90;;;;;;2668737;28;20833;-68
2021/11/18 02:24:04;;;;;;;23.00;20.10;;;6.30;99.90;;;;;;2668381;28;20202;-67
2021/11/18 02:25:29;;;;;;;23.63;20.00;;;6.30;99.90;;;;;;2668604;28;20269;-68
2021/11/18 02:26:48;;;;;;;25.08;21.38;;;6.30;99.90;;;;;;2668173;28;20198;-68
2021/11/18 02:28:06;;;;;;;25.75;21.60;;;6.30;99.90;;;;;;2665039;28;20683;-68
2021/11/18 02:29:24;;;;;;;27.55;22.05;;;6.30;99.90;;;;;;2665931;28;20210;-68
2021/11/18 02:30:42;;;;;;;21.83;19.52;;;6.20;99.90;;;;;;2668155;28;20207;-68
2021/11/18 02:32:05;;;;;;;25.33;22.13;;;6.20;99.90;;;;;;2658272;28;20296;-68
2021/11/18 02:33:24;;;;;;;26.40;22.08;;;6.10;99.90;;;;;;2660617;28;20461;-68
2021/11/18 02:34:47;;;;;;;23.83;21.23;;;6.00;99.90;;;;;;2668738;28;20217;-67
2021/11/18 02:36:06;;;;;;;25.42;21.80;;;6.00;99.90;;;;;;2669236;28;20686;-67
2021/11/18 02:37:25;;;;;;;27.52;22.45;;;6.00;99.90;;;;;;2670593;28;20203;-67
2021/11/18 02:38:44;;;;;;;28.70;23.67;;;5.90;99.90;;;;;;2670675;28;20264;-67
2021/11/18 02:40:05;;;;;;;28.63;23.45;;;6.00;99.90;;;;;;2669528;28;20206;-67
2021/11/18 02:41:24;;;;;;;29.52;24.65;;;5.90;99.90;;;;;;2667635;28;20203;-67
2021/11/18 02:42:42;;;;;;;27.80;22.02;;;5.90;99.90;;;;;;2670238;28;20419;-67
2021/11/18 02:44:01;;;;;;;29.85;23.33;;;6.00;99.90;;;;;;2669909;28;20331;-67
2021/11/18 02:45:22;;;;;;;28.38;22.65;;;6.00;99.90;;;;;;2669490;28;20284;-67
2021/11/18 02:46:41;;;;;;;30.58;25.20;;;6.10;99.90;;;;;;2670122;28;20221;-67
2021/11/18 02:47:59;;;;;;;29.80;23.75;;;6.10;99.90;;;;;;2670431;28;20282;-67
2021/11/18 02:49:18;;;;;;;31.60;24.30;;;6.00;99.90;;;;;;2670659;28;20202;-67
2021/11/18 02:50:40;;;;;;;33.38;24.92;;;6.00;99.90;;;;;;2668803;28;20283;-67
2021/11/18 02:51:59;;;;;;;33.85;25.15;;;5.90;99.90;;;;;;2663191;28;21118;-67
2021/11/18 02:53:18;;;;;;;33.75;25.23;;;6.00;99.90;;;;;;2667668;28;20195;-67
2021/11/18 02:54:37;;;;;;;36.10;26.30;;;5.90;99.90;;;;;;2670120;28;20270;-67
2021/11/18 02:55:56;;;;;;;35.67;26.17;;;5.90;99.90;;;;;;2670159;28;20260;-67
2021/11/18 02:57:14;;;;;;;32.65;25.40;;;5.90;99.90;;;;;;2670363;28;20997;-67
2021/11/18 02:58:32;;;;;;;34.90;25.92;;;5.90;99.90;;;;;;2670281;28;20243;-67
2021/11/18 02:59:50;;;;;;;31.77;24.83;;;5.90;99.90;;;;;;2669485;28;20672;-67
2021/11/18 03:01:25;;;;;;;31.60;24.80;;;5.90;99.90;;;;;;2662143;28;20615;-67
2021/11/18 03:02:43;;;;;;;31.67;24.90;;;5.90;99.90;;;;;;2659631;28;20276;-67
2021/11/18 03:04:02;;;;;;;32.28;25.55;;;5.90;99.90;;;;;;2664519;28;20544;-67
2021/11/18 03:05:23;;;;;;;31.45;25.30;;;6.00;99.90;;;;;;2669838;28;20210;-67
2021/11/18 03:06:42;;;;;;;35.60;26.85;;;6.10;99.90;;;;;;2666815;28;20225;-67
2021/11/18 03:08:01;;;;;;;30.80;24.88;;;6.00;99.90;;;;;;2667896;28;20267;-67
2021/11/18 03:09:19;;;;;;;35.78;26.45;;;6.10;99.90;;;;;;2670256;28;20548;-67
2021/11/18 03:10:37;;;;;;;30.75;25.23;;;6.00;99.90;;;;;;2658017;28;20246;-67
2021/11/18 03:11:58;;;;;;;36.28;24.50;;;6.00;99.90;;;;;;2664053;28;20230;-67
2021/11/18 03:13:18;;;;;;;33.60;26.92;;;5.90;99.90;;;;;;2669408;28;20230;-67
2021/11/18 03:14:36;;;;;;;33.90;26.42;;;5.90;99.90;;;;;;2666419;28;20213;-67
2021/11/18 03:15:57;;;;;;;32.35;25.88;;;6.00;99.90;;;;;;2668990;28;20206;-67
2021/11/18 03:17:16;;;;;;;31.17;26.50;;;6.00;99.90;;;;;;2663612;28;20221;-67
2021/11/18 03:18:33;;;;;;;33.25;24.60;;;6.00;99.90;;;;;;2659492;28;20257;-67
2021/11/18 03:19:52;;;;;;;33.30;26.23;;;6.10;99.90;;;;;;2659190;28;20285;-67
2021/11/18 03:21:15;;;;;;;33.15;25.65;;;6.00;99.90;;;;;;2659206;28;20551;-67
2021/11/18 03:22:33;;;;;;;34.25;25.33;;;6.00;99.90;;;;;;2661659;28;20266;-67
2021/11/18 03:23:52;;;;;;;29.80;25.20;;;6.00;99.90;;;;;;2665198;28;20288;-67
2021/11/18 03:25:13;;;;;;;31.08;26.45;;;6.10;99.90;;;;;;2668223;28;20467;-67
2021/11/18 03:26:33;;;;;;;31.17;24.75;;;6.00;99.90;;;;;;2669752;28;20217;-67
2021/11/18 03:27:51;;;;;;;33.72;26.10;;;6.00;99.90;;;;;;2669745;28;20236;-67
2021/11/18 03:29:10;;;;;;;34.67;25.98;;;5.90;99.90;;;;;;2662668;28;20239;-67
2021/11/18 03:30:32;;;;;;;28.83;23.95;;;5.90;99.90;;;;;;2667361;28;20198;-67
2021/11/18 03:31:51;;;;;;;33.25;25.98;;;5.90;99.90;;;;;;2669119;28;20206;-67
2021/11/18 03:33:21;;;;;;;28.35;23.50;;;5.90;99.90;;;;;;2669898;28;20206;-67
2021/11/18 03:34:40;;;;;;;32.00;24.80;;;6.00;99.90;;;;;;2666936;28;20566;-67
2021/11/18 03:35:58;;;;;;;29.95;23.05;;;6.10;99.90;;;;;;2668444;28;20209;-67
2021/11/18 03:37:17;;;;;;;29.33;25.35;;;6.10;99.90;;;;;;2654028;28;20259;-67
2021/11/18 03:38:36;;;;;;;27.23;23.17;;;6.10;99.90;;;;;;2653075;28;20207;-67
2021/11/18 03:39:55;;;;;;;31.95;25.10;;;6.10;99.90;;;;;;2661545;28;20595;-67
2021/11/18 03:41:13;;;;;;;32.92;25.75;;;6.00;99.90;;;;;;2666984;28;20256;-67
2021/11/18 03:42:32;;;;;;;30.83;23.60;;;6.00;99.90;;;;;;2669314;28;20836;-67
2021/11/18 03:43:55;;;;;;;30.88;24.85;;;6.00;99.90;;;;;;2668852;28;20214;-67
2021/11/18 03:45:15;;;;;;;33.33;24.90;;;6.00;99.90;;;;;;2669431;28;20301;-67
2021/11/18 03:46:43;;;;;;;33.88;26.38;;;6.00;99.90;;;;;;2669560;28;20209;-67
2021/11/18 03:48:00;;;;;;;29.80;23.58;;;6.10;99.90;;;;;;2669226;28;20491;-67
2021/11/18 03:49:20;;;;;;;31.30;24.33;;;6.00;99.90;;;;;;2669917;28;20678;-67
2021/11/18 03:50:39;;;;;;;31.83;26.67;;;6.00;99.90;;;;;;2668141;28;20441;-67
2021/11/18 03:51:59;;;;;;;32.03;23.30;;;6.00;99.90;;;;;;2662960;28;20301;-67
2021/11/18 03:53:18;;;;;;;31.10;25.20;;;6.10;99.90;;;;;;2667427;28;20260;-67
2021/11/18 03:54:39;;;;;;;31.90;23.50;;;6.10;99.90;;;;;;2665866;28;20214;-67
2021/11/18 03:55:56;;;;;;;30.23;25.60;;;6.00;99.90;;;;;;2659084;28;20229;-67
2021/11/18 03:57:16;;;;;;;28.00;22.73;;;6.00;99.90;;;;;;2659229;28;20466;-67
2021/11/18 03:58:34;;;;;;;26.67;21.98;;;6.00;99.90;;;;;;2663060;28;20218;-67
2021/11/18 03:59:54;;;;;;;26.45;22.88;;;6.00;99.90;;;;;;2669060;28;20484;-67
2021/11/18 04:01:13;;;;;;;30.15;24.13;;;6.00;99.90;;;;;;2669368;28;20210;-67
2021/11/18 04:02:31;;;;;;;24.67;21.92;;;6.00;99.90;;;;;;2657761;28;20310;-67
2021/11/18 04:03:54;;;;;;;29.33;23.10;;;6.00;99.90;;;;;;2663437;28;20215;-68
2021/11/18 04:05:12;;;;;;;28.63;22.92;;;6.00;99.90;;;;;;2658437;28;20712;-67
2021/11/18 04:06:31;;;;;;;28.25;21.92;;;6.00;99.90;;;;;;2660466;28;20210;-67
2021/11/18 04:07:49;;;;;;;32.00;23.20;;;6.00;99.90;;;;;;2669531;28;20701;-67
2021/11/18 04:09:09;;;;;;;28.27;22.60;;;6.10;99.90;;;;;;2669656;28;20574;-67
2021/11/18 04:10:29;;;;;;;27.73;24.02;;;6.10;99.90;;;;;;2668200;28;20788;-67
2021/11/18 04:11:51;;;;;;;29.58;23.30;;;6.10;99.90;;;;;;2669728;28;20261;-67
2021/11/18 04:13:11;;;;;;;25.23;20.52;;;6.10;99.90;;;;;;2669591;28;20207;-67
2021/11/18 04:14:30;;;;;;;28.95;22.70;;;6.10;99.90;;;;;;2659034;28;20214;-67
2021/11/18 04:15:49;;;;;;;26.35;23.40;;;6.10;99.90;;;;;;2665369;28;20214;-67
2021/11/18 04:17:10;;;;;;;23.38;19.73;;;6.10;99.90;;;;;;2668092;28;20230;-67
2021/11/18 04:18:28;;;;;;;25.88;20.77;;;6.20;99.90;;;;;;2668810;28;20212;-67
2021/11/18 04:19:47;;;;;;;25.02;21.15;;;6.20;99.90;;;;;;2663909;28;20346;-67
2021/11/18 04:21:06;;;;;;;28.55;21.10;;;6.20;99.90;;;;;;2664628;28;20306;-67
2021/11/18 04:22:24;;;;;;;21.75;17.65;;;6.20;99.90;;;;;;2658736;28;20208;-67
2021/11/18 04:23:43;;;;;;;23.23;18.58;;;6.20;99.90;;;;;;2661694;28;20206;-68
2021/11/18 04:25:04;;;;;;;22.48;18.17;;;6.30;99.90;;;;;;2664199;28;20303;-67
2021/11/18 04:26:24;;;;;;;21.98;18.73;;;6.30;99.90;;;;;;2647706;28;20213;-67
2021/11/18 04:27:42;;;;;;;23.00;18.10;;;6.40;99.90;;;;;;2659846;28;20214;-68
2021/11/18 04:29:02;;;;;;;20.48;18.25;;;6.40;99.90;;;;;;2662804;28;20777;-68
2021/11/18 04:30:24;;;;;;;24.33;20.05;;;6.40;99.90;;;;;;2666289;28;20733;-68
2021/11/18 04:31:43;;;;;;;24.27;19.13;;;6.40;99.90;;;;;;2669685;28;20232;-67
2021/11/18 04:33:01;;;;;;;23.02;18.92;;;6.40;99.90;;;;;;2669273;28;20301;-67
2021/11/18 04:34:20;;;;;;;23.03;20.53;;;6.40;99.90;;;;;;2669154;28;20233;-67
2021/11/18 04:35:38;;;;;;;23.85;19.98;;;6.40;99.90;;;;;;2658152;28;20991;-68
2021/11/18 04:36:57;;;;;;;26.45;19.27;;;6.30;99.90;;;;;;2663123;28;20206;-68
2021/11/18 04:38:16;;;;;;;21.70;19.02;;;6.30;99.90;;;;;;2669256;28;20705;-67
2021/11/18 04:39:36;;;;;;;22.73;18.33;;;6.30;99.90;;;;;;2668053;28;20206;-67
2021/11/18 04:40:54;;;;;;;23.33;20.15;;;6.40;99.90;;;;;;2661184;28;20273;-67
2021/11/18 04:42:15;;;;;;;23.90;19.45;;;6.50;99.90;;;;;;2666363;28;20317;-67
2021/11/18 04:43:33;;;;;;;22.75;18.63;;;6.40;99.90;;;;;;2669090;28;20255;-67
2021/11/18 04:44:52;;;;;;;24.67;19.73;;;6.30;99.90;;;;;;2669052;28;20206;-67
2021/11/18 04:46:12;;;;;;;22.70;18.80;;;6.40;99.90;;;;;;2668938;28;20750;-67
2021/11/18 04:47:30;;;;;;;25.48;19.75;;;6.40;99.90;;;;;;2668829;28;20259;-67
2021/11/18 04:48:49;;;;;;;24.80;20.60;;;6.50;99.90;;;;;;2658049;28;20587;-67
2021/11/18 04:50:08;;;;;;;26.50;20.77;;;6.40;99.90;;;;;;2662016;28;20468;-67
2021/11/18 04:51:28;;;;;;;26.20;20.38;;;6.40;99.90;;;;;;2666775;28;20218;-67
2021/11/18 04:52:46;;;;;;;25.50;20.50;;;6.50;99.90;;;;;;2662619;28;20211;-67
2021/11/18 04:54:06;;;;;;;23.58;18.70;;;6.40;99.90;;;;;;2666578;28;20210;-67
2021/11/18 04:55:27;;;;;;;24.08;19.65;;;6.40;99.90;;;;;;2669127;28;20887;-67
2021/11/18 04:56:46;;;;;;;24.08;19.52;;;6.40;99.90;;;;;;2669240;28;20217;-67
2021/11/18 04:58:07;;;;;;;25.48;20.05;;;6.30;99.90;;;;;;2668403;28;20275;-68
2021/11/18 04:59:26;;;;;;;37.03;21.40;;;6.40;99.90;;;;;;2662997;28;20270;-67
2021/11/18 05:00:50;;;;;;;29.88;21.20;;;6.40;99.90;;;;;;2657419;28;20203;-67
2021/11/18 05:02:08;;;;;;;23.92;21.08;;;6.40;99.90;;;;;;2658544;28;20199;-67
2021/11/18 05:03:29;;;;;;;26.95;19.98;;;6.40;99.90;;;;;;2661189;28;20688;-67
2021/11/18 05:04:49;;;;;;;27.23;20.80;;;6.40;99.90;;;;;;2668592;28;20240;-67
2021/11/18 05:06:07;;;;;;;26.02;19.50;;;6.30;99.90;;;;;;2661747;28;20297;-67
2021/11/18 05:07:26;;;;;;;22.52;19.15;;;6.30;99.90;;;;;;2663467;28;20213;-67
2021/11/18 05:08:45;;;;;;;24.25;19.30;;;6.30;99.90;;;;;;2668384;28;20206;-67
2021/11/18 05:10:06;;;;;;;20.75;17.83;;;6.30;99.90;;;;;;2662733;28;20254;-67
2021/11/18 05:11:26;;;;;;;23.50;18.00;;;6.30;99.90;;;;;;2658555;28;20213;-67
2021/11/18 05:12:44;;;;;;;22.58;18.00;;;6.30;99.90;;;;;;2657688;28;20241;-67
2021/11/18 05:14:03;;;;;;;22.85;17.90;;;6.30;99.90;;;;;;2668317;28;20234;-67
2021/11/18 05:15:24;;;;;;;22.00;18.15;;;6.30;99.90;;;;;;2663675;28;20217;-67
2021/11/18 05:16:43;;;;;;;24.33;16.77;;;6.40;99.90;;;;;;2658515;28;20219;-67
2021/11/18 05:18:02;;;;;;;18.92;15.68;;;6.50;99.90;;;;;;2658222;28;20615;-67
2021/11/18 05:19:24;;;;;;;21.92;18.42;;;6.40;99.90;;;;;;2658810;28;20269;-67
2021/11/18 05:20:43;;;;;;;21.13;18.40;;;6.40;99.90;;;;;;2646170;28;20701;-67
2021/11/18 05:22:04;;;;;;;21.42;17.83;;;6.40;99.90;;;;;;2653067;28;20203;-67
2021/11/18 05:23:23;;;;;;;22.05;18.50;;;6.40;99.90;;;;;;2667155;28;20226;-67
2021/11/18 05:24:41;;;;;;;25.23;18.85;;;6.40;99.90;;;;;;2664855;28;20393;-67
2021/11/18 05:26:00;;;;;;;20.88;17.23;;;6.40;99.90;;;;;;2662369;28;20305;-67
2021/11/18 05:27:20;;;;;;;22.40;17.98;;;6.40;99.90;;;;;;2662217;28;20659;-67
2021/11/18 05:28:39;;;;;;;22.10;17.52;;;6.40;99.90;;;;;;2661109;28;20198;-67
2021/11/18 05:29:56;;;;;;;24.08;19.45;;;6.40;99.90;;;;;;2668097;28;20293;-67
2021/11/18 05:31:18;;;;;;;25.58;19.92;;;6.40;99.90;;;;;;2668546;28;20200;-67
2021/11/18 05:32:37;;;;;;;22.42;18.23;;;6.40;99.90;;;;;;2668778;28;20226;-67
2021/11/18 05:33:57;;;;;;;23.95;17.50;;;6.40;99.90;;;;;;2668262;28;20210;-67
2021/11/18 05:35:14;;;;;;;23.17;18.75;;;6.50;99.90;;;;;;2668716;28;20206;-67
2021/11/18 05:36:33;;;;;;;25.40;17.43;;;6.40;99.90;;;;;;2668632;28;20264;-67
2021/11/18 05:37:53;;;;;;;25.80;17.20;;;6.40;99.90;;;;;;2668742;28;20547;-67
2021/11/18 05:39:12;;;;;;;27.15;17.75;;;6.30;99.90;;;;;;2668633;28;20210;-67
2021/11/18 05:40:31;;;;;;;22.73;19.05;;;6.40;99.90;;;;;;2667059;28;20288;-67
2021/11/18 05:41:50;;;;;;;25.02;17.92;;;6.40;99.90;;;;;;2664097;28;20214;-67
2021/11/18 05:43:08;;;;;;;25.33;17.65;;;6.40;99.90;;;;;;2657828;28;20231;-68
2021/11/18 05:44:27;;;;;;;20.95;16.67;;;6.40;99.90;;;;;;2658193;28;20213;-68
2021/11/18 05:45:45;;;;;;;26.17;17.80;;;6.40;99.90;;;;;;2662066;28;20205;-68
2021/11/18 05:47:04;;;;;;;21.13;15.77;;;6.60;99.90;;;;;;2662991;28;20198;-68
2021/11/18 05:48:23;;;;;;;21.20;17.05;;;6.60;99.90;;;;;;2657623;28;20209;-68
2021/11/18 05:49:42;;;;;;;32.50;19.10;;;6.50;99.90;;;;;;2662682;28;20206;-68
2021/11/18 05:51:01;;;;;;;21.50;17.38;;;6.50;99.90;;;;;;2664748;28;20206;-68
2021/11/18 05:52:22;;;;;;;21.50;17.38;;;6.50;99.90;;;;;;2661130;28;20249;-68
2021/11/18 05:53:43;;;;;;;18.10;15.80;;;6.60;99.90;;;;;;2666084;28;20249;-68
2021/11/18 05:55:04;;;;;;;22.60;17.80;;;6.60;99.90;;;;;;2662699;28;20195;-67
2021/11/18 05:56:24;;;;;;;23.80;17.25;;;6.60;99.90;;;;;;2657791;28;20210;-67
2021/11/18 05:57:42;;;;;;;21.27;16.10;;;6.60;99.90;;;;;;2663046;28;20660;-67
2021/11/18 05:59:01;;;;;;;22.70;17.23;;;6.60;99.90;;;;;;2668760;28;20210;-67
2021/11/18 06:00:23;;;;;;;23.08;17.55;;;6.60;99.90;;;;;;2667453;28;20206;-67
2021/11/18 06:01:42;;;;;;;20.77;17.05;;;6.60;99.90;;;;;;2668126;28;20567;-67
2021/11/18 06:03:01;;;;;;;24.40;17.77;;;6.70;99.90;;;;;;2668414;28;20629;-67
2021/11/18 06:04:20;;;;;;;24.00;18.25;;;6.70;99.90;;;;;;2659744;28;20926;-67
2021/11/18 06:05:39;;;;;;;26.38;17.95;;;6.70;99.90;;;;;;2668730;28;20651;-67
2021/11/18 06:06:57;;;;;;;21.27;17.08;;;6.60;99.90;;;;;;2663203;28;20567;-67
2021/11/18 06:08:15;;;;;;;22.23;18.60;;;6.60;99.90;;;;;;2658333;28;20229;-67
2021/11/18 06:09:34;;;;;;;22.00;16.77;;;6.60;99.90;;;;;;2657369;28;20204;-67
2021/11/18 06:10:52;;;;;;;20.80;17.23;;;6.60;99.90;;;;;;2658836;28;20214;-67
2021/11/18 06:12:12;;;;;;;24.30;17.60;;;6.60;99.90;;;;;;2664806;28;20200;-68
2021/11/18 06:13:31;;;;;;;23.75;17.40;;;6.60;99.90;;;;;;2664143;28;20663;-68
2021/11/18 06:14:48;;;;;;;24.10;18.35;;;6.60;99.90;;;;;;2665999;28;20217;-68
2021/11/18 06:16:08;;;;;;;23.23;18.03;;;6.60;99.90;;;;;;2670777;28;20288;-68
2021/11/18 06:17:26;;;;;;;23.58;18.30;;;6.60;99.90;;;;;;2669370;28;20210;-68
2021/11/18 06:18:45;;;;;;;21.65;17.88;;;6.50;99.90;;;;;;2669787;28;20243;-68
2021/11/18 06:20:05;;;;;;;22.70;18.52;;;6.60;99.90;;;;;;2669864;28;20563;-68
2021/11/18 06:21:24;;;;;;;22.55;18.08;;;6.50;99.90;;;;;;2670429;28;20564;-68
2021/11/18 06:22:45;;;;;;;20.70;16.88;;;6.50;99.90;;;;;;2670951;28;20194;-68
2021/11/18 06:24:04;;;;;;;24.20;18.75;;;6.50;99.90;;;;;;2664295;28;20223;-68
2021/11/18 06:25:27;;;;;;;25.42;19.75;;;6.50;99.90;;;;;;2660217;28;20245;-68
2021/11/18 06:26:45;;;;;;;20.85;17.42;;;6.60;99.90;;;;;;2660258;28;20214;-68
2021/11/18 06:28:06;;;;;;;23.52;19.10;;;6.60;99.90;;;;;;2670457;28;20206;-68
2021/11/18 06:29:25;;;;;;;23.40;17.85;;;6.60;99.90;;;;;;2661830;28;20731;-68
2021/11/18 06:30:45;;;;;;;29.17;19.95;;;6.60;99.90;;;;;;2669672;28;20206;-68
2021/11/18 06:32:05;;;;;;;23.58;18.05;;;6.60;99.90;;;;;;2666160;28;20261;-68
2021/11/18 06:33:24;;;;;;;23.75;18.08;;;6.60;99.90;;;;;;2669255;28;20198;-67
2021/11/18 06:34:42;;;;;;;22.85;18.85;;;6.70;99.90;;;;;;2660036;28;20252;-68
2021/11/18 06:36:02;;;;;;;25.63;18.25;;;6.80;99.90;;;;;;2660122;28;20211;-68
2021/11/18 06:37:20;;;;;;;26.10;18.05;;;6.90;99.90;;;;;;2660030;28;20207;-69
2021/11/18 06:38:41;;;;;;;21.63;17.75;;;6.80;99.90;;;;;;2660155;28;20209;-68
2021/11/18 06:39:59;;;;;;;21.23;17.48;;;6.80;99.90;;;;;;2659106;28;20223;-69
2021/11/18 06:41:20;;;;;;;21.27;16.97;;;6.70;99.90;;;;;;2661808;28;20668;-69
2021/11/18 06:42:41;;;;;;;20.33;17.45;;;6.70;99.90;;;;;;2667275;28;20442;-69
2021/11/18 06:43:59;;;;;;;21.27;17.80;;;6.70;99.90;;;;;;2660493;28;20285;-69
2021/11/18 06:45:24;;;;;;;23.30;17.70;;;6.70;99.90;;;;;;2661052;28;20207;-70
2021/11/18 06:46:42;;;;;;;23.30;17.63;;;6.80;99.90;;;;;;2663110;28;20261;-69
2021/11/18 06:48:01;;;;;;;27.13;18.67;;;6.70;99.90;;;;;;2670496;28;20225;-69
2021/11/18 06:49:20;;;;;;;21.13;16.73;;;6.80;99.90;;;;;;2670161;28;20202;-69
2021/11/18 06:50:39;;;;;;;23.08;17.90;;;6.80;99.90;;;;;;2664027;28;20230;-69